ADDS METAR Data INFO
IDs: Format: Raw Decoded Include TAF

Data at: 1349 UTC 23 Jun 2018

KHVN 231253Z 05010G15KT 10SM BKN011 OVC016 17/12 A2992 RMK AO2 SLP131 T01670117
KHVN 231242Z 07010G15KT 10SM BKN011 OVC018 17/12 A2992 RMK AO2 T01670117
KHVN 231153Z 05010G16KT 10SM OVC020 16/11 A2993 RMK AO2 SLP135 T01610106 10183 20161 58005
KHVN 231053Z 09011G21KT 9SM OVC026 17/11 A2994 RMK AO2 SLP138 T01670111
KHVN 231014Z 08009KT 10SM BKN029 OVC039 18/08 A2994 RMK AO2 T01780078
KHVN 230953Z 07010KT 10SM OVC032 18/07 A2994 RMK AO2 SLP139 T01830067
KHVN 230853Z AUTO 06006KT 10SM OVC035 18/08 A2995 RMK AO2 SLP140 T01780078 56017
KHVN 230753Z AUTO 06006KT 10SM FEW038 OVC065 17/09 A2995 RMK AO2 SLP143 T01720094
KHVN 230653Z AUTO 02006KT 10SM BKN037 OVC070 17/12 A2999 RMK AO2 SLP154 T01670117
KHVN 230553Z AUTO 06005KT 10SM BKN095 BKN110 17/12 A3000 RMK AO2 RAE0454 SLP157 P0000 60000 T01670117 10178 20167 58014
KHVN 230453Z AUTO 07003KT 10SM -RA BKN090 BKN110 17/12 A3002 RMK AO2 RAB39 SLP165 P0000 T01670122 402280161
KHVN 230353Z AUTO 05004KT 10SM CLR 17/12 A3004 RMK AO2 SLP170 T01720122
KHVN 230253Z AUTO 07003KT 10SM CLR 17/13 A3004 RMK AO2 SLP171 T01720133 50001
KHVN 230153Z 08005KT 10SM CLR 17/14 A3004 RMK AO2 SLP173 T01720144
KHVN 230053Z 10006KT 10SM FEW007 17/15 A3004 RMK AO2 SLP171 T01720150
KHVN 222353Z 11010G15KT 10SM SCT007 18/16 A3003 RMK AO2 SLP170 T01780156 10228 20178 55001
KHVN 222253Z 11006KT 10SM CLR 19/16 A3003 RMK AO2 SLP167 T01940161
KHVN 222153Z 12009KT 10SM CLR 21/16 A3003 RMK AO2 SLP167 T02060161
KHVN 222053Z 12009G16KT 10SM BKN150 BKN250 22/16 A3004 RMK AO2 SLP171 T02170156 56002
KHVN 221953Z 11008KT 10SM CLR 22/17 A3004 RMK AO2 SLP171 T02170167
KHVN 221853Z 11010KT 10SM CLR 22/16 A3004 RMK AO2 SLP171 T02220156
KHVN 221753Z 14011KT 10SM FEW030 SCT150 BKN250 23/16 A3004 RMK AO2 SLP173 T02280161 10228 20189 50000
KHVN 221653Z 11011KT 10SM FEW025 SCT130 BKN250 22/16 A3005 RMK AO2 SLP176 T02170156
KHVN 221553Z 13010KT 10SM FEW025 SCT130 BKN250 22/16 A3005 RMK AO2 SLP174 T02170156
KHVN 221453Z 13010KT 10SM SCT130 BKN250 21/16 A3004 RMK AO2 SLP173 T02060156 53009
KHVN 221353Z 14008KT 10SM BKN250 21/14 A3003 RMK AO2 SLP169 T02110144
KHVN 221253Z 09006KT 10SM BKN250 21/12 A3002 RMK AO2 SLP167 T02060117
KHVN 221153Z 01007KT 10SM BKN250 19/10 A3001 RMK AO2 SLP163 T01890100 10189 20161 51024
KHVN 221053Z 04005KT 10SM FEW010 BKN150 18/08 A3000 RMK AO2 SLP158 T01780083
KHVN 220953Z 03009KT 10SM FEW010 SCT120 BKN250 17/08 A2997 RMK AO2 SLP148 T01720078
KHVN 220853Z AUTO 01009KT 10SM CLR 17/10 A2994 RMK AO2 SLP139 T01670100 53007
KHVN 220753Z AUTO 36003KT 7SM SCT002 17/17 A2993 RMK AO2 SLP133 T01720167
KHVN 220728Z AUTO 03005KT 5SM BR OVC002 18/17 A2992 RMK AO2 T01780172
KHVN 220720Z AUTO 01004KT 2SM R02/5500VP6000FT BR OVC002 18/17 A2992 RMK AO2 T01780172
KHVN 220653Z AUTO 00000KT 1/2SM R02/2400V4000FT FG VV002 18/17 A2992 RMK AO2 SLP132 T01780172
KHVN 220553Z AUTO 08004KT 3/4SM R02/3000V6000FT BR VV002 17/17 A2991 RMK AO2 SLP127 T01720172 10222 20172 53006
KHVN 220510Z AUTO 06004KT 3/4SM R02/2400V5000FT BR VV002 18/17 A2990 RMK AO2 T01780172
KHVN 220453Z AUTO 10004KT 1SM R02/3000VP6000FT BR VV002 18/17 A2990 RMK AO2 SLP125 T01780172 402560178
KHVN 220424Z AUTO 12004KT 1 1/4SM R02/4500VP6000FT BR OVC002 18/17 A2990 RMK AO2 T01780172
KHVN 220413Z AUTO 14005KT 2SM R02/6000VP6000FT BR OVC002 18/17 A2990 RMK AO2 VIS 1 1/2V4 T01830172
KHVN 220353Z AUTO 14003KT 1 3/4SM R02/4000VP6000FT BR BKN003 OVC085 18/17 A2989 RMK AO2 SLP122 T01830172
KHVN 220350Z AUTO 13003KT 3SM R02/6000VP6000FT BR BKN003 OVC085 18/17 A2989 RMK AO2
KHVN 220341Z AUTO 14004KT 10SM SCT003 BKN085 18/17 A2989 RMK AO2 T01830172
KHVN 220253Z AUTO 08003KT 10SM CLR 19/17 A2988 RMK AO2 SLP118 T01890172 51030
KHVN 220153Z 10007KT 10SM FEW095 20/18 A2986 RMK AO2 SLP111 T02000178